createdAt,value
2023-03-22T00:00:01.492Z,22.90
2023-03-22T00:02:30.466Z,23.10
2023-03-22T00:04:58.729Z,22.70
2023-03-22T00:07:28.268Z,21.90
2023-03-22T00:09:56.528Z,22.40
2023-03-22T00:12:24.714Z,22.60
2023-03-22T00:14:53.580Z,22.70
2023-03-22T00:17:22.997Z,22.80
2023-03-22T00:19:54.392Z,22.70
2023-03-22T00:22:22.869Z,22.70
2023-03-22T00:24:52.395Z,21.50
2023-03-22T00:27:20.775Z,21.20
2023-03-22T00:29:49.338Z,21.80
2023-03-22T00:32:17.679Z,22.00
2023-03-22T00:34:46.132Z,22.10
2023-03-22T00:37:16.305Z,22.30
2023-03-22T00:39:44.869Z,22.00
2023-03-22T00:42:14.426Z,22.00
2023-03-22T00:44:42.765Z,22.20
2023-03-22T00:47:11.235Z,22.30
2023-03-22T00:49:39.491Z,22.20
2023-03-22T00:52:07.684Z,22.40
2023-03-22T00:54:35.893Z,22.40
2023-03-22T00:57:04.286Z,22.30
2023-03-22T00:59:38.325Z,22.10
2023-03-22T01:02:07.131Z,22.40
2023-03-22T01:04:35.717Z,22.50
2023-03-22T01:07:07.731Z,22.50
2023-03-22T01:09:37.609Z,21.90
2023-03-22T01:12:06.081Z,22.20
2023-03-22T01:14:35.811Z,22.40
2023-03-22T01:17:04.781Z,22.50
2023-03-22T01:19:33.017Z,22.10
2023-03-22T01:22:01.288Z,22.40
2023-03-22T01:24:30.327Z,22.40
2023-03-22T01:27:01.523Z,22.60
2023-03-22T01:29:31.202Z,22.70
2023-03-22T01:32:00.813Z,22.70
2023-03-22T01:34:28.996Z,22.60
2023-03-22T01:36:57.371Z,22.60
2023-03-22T01:39:26.100Z,22.70
2023-03-22T01:41:57.873Z,22.80
2023-03-22T01:44:26.132Z,22.90
2023-03-22T01:46:56.434Z,22.90
2023-03-22T01:49:31.044Z,22.90
2023-03-22T01:52:04.613Z,22.80
2023-03-22T01:54:55.513Z,22.70
2023-03-22T01:57:37.901Z,22.80
2023-03-22T02:00:13.797Z,22.90
2023-03-22T02:02:42.428Z,22.80
2023-03-22T02:05:24.337Z,22.70
2023-03-22T02:07:54.706Z,22.60
2023-03-22T02:10:27.123Z,22.10
2023-03-22T02:13:42.322Z,22.20
2023-03-22T02:16:36.091Z,22.50
2023-03-22T02:19:34.250Z,22.70
2023-03-22T02:22:28.064Z,22.90
2023-03-22T02:25:22.624Z,22.90
2023-03-22T02:28:15.655Z,23.10
2023-03-22T02:31:09.138Z,23.30
2023-03-22T02:33:59.661Z,23.30
2023-03-22T02:36:44.560Z,23.50
2023-03-22T02:39:32.421Z,23.50
2023-03-22T02:42:12.830Z,23.60
2023-03-22T02:44:43.910Z,23.70
2023-03-22T02:47:21.571Z,23.60
2023-03-22T02:49:57.016Z,23.30
2023-03-22T02:52:32.485Z,23.30
2023-03-22T02:55:10.942Z,23.30
2023-03-22T02:57:45.382Z,23.30
2023-03-22T03:00:17.865Z,23.40
2023-03-22T03:02:50.608Z,23.40
2023-03-22T03:05:20.887Z,23.40
2023-03-22T03:07:54.121Z,23.40
2023-03-22T03:10:25.579Z,23.60
2023-03-22T03:12:56.801Z,23.60
2023-03-22T03:15:25.909Z,23.60
2023-03-22T03:18:06.083Z,23.50
2023-03-22T03:20:46.475Z,23.50
2023-03-22T03:23:25.166Z,23.50
2023-03-22T03:26:02.653Z,23.40
2023-03-22T03:28:39.279Z,23.40
2023-03-22T03:31:18.841Z,23.20
2023-03-22T03:33:58.294Z,23.20
2023-03-22T03:36:29.896Z,23.20
2023-03-22T03:38:59.405Z,23.30
2023-03-22T03:41:31.305Z,23.30
2023-03-22T03:44:00.570Z,23.30
2023-03-22T03:46:29.437Z,23.30
2023-03-22T03:48:59.202Z,23.30
2023-03-22T03:51:29.453Z,23.30
2023-03-22T03:53:57.677Z,23.30
2023-03-22T03:56:26.138Z,23.30
2023-03-22T03:58:58.267Z,23.40
2023-03-22T04:01:28.478Z,23.30
2023-03-22T04:04:14.053Z,23.40
2023-03-22T04:06:51.935Z,23.40
2023-03-22T04:09:24.920Z,23.40
2023-03-22T04:11:58.218Z,23.50
2023-03-22T04:14:28.351Z,23.50
2023-03-22T04:16:59.985Z,23.50
2023-03-22T04:19:28.782Z,23.40
2023-03-22T04:21:56.966Z,22.90
2023-03-22T04:24:25.206Z,23.10
2023-03-22T04:26:53.943Z,23.10
2023-03-22T04:29:27.349Z,23.10
2023-03-22T04:32:01.569Z,22.70
2023-03-22T04:34:37.047Z,22.70
2023-03-22T04:37:10.785Z,22.40
2023-03-22T04:39:47.338Z,22.00
2023-03-22T04:42:34.713Z,21.80
2023-03-22T04:45:29.220Z,21.90
2023-03-22T04:48:01.844Z,22.10
2023-03-22T04:50:31.076Z,22.30
2023-03-22T04:53:03.942Z,22.40
2023-03-22T04:55:34.147Z,22.30
2023-03-22T04:58:03.083Z,22.50
2023-03-22T05:00:33.256Z,22.40
2023-03-22T05:03:04.080Z,22.40
2023-03-22T05:05:41.333Z,22.20
2023-03-22T05:08:09.579Z,22.20
2023-03-22T05:10:41.368Z,22.40
2023-03-22T05:13:10.115Z,22.40
2023-03-22T05:15:44.496Z,22.50
2023-03-22T05:18:15.710Z,22.60
2023-03-22T05:20:45.519Z,22.50
2023-03-22T05:23:19.406Z,22.60
2023-03-22T05:25:52.254Z,22.70
2023-03-22T05:28:22.486Z,22.80
2023-03-22T05:31:00.006Z,22.90
2023-03-22T05:33:41.436Z,23.00
2023-03-22T05:36:15.843Z,23.10
2023-03-22T05:39:03.684Z,23.10
2023-03-22T05:41:36.229Z,23.20
2023-03-22T05:44:05.770Z,23.20
2023-03-22T05:46:37.611Z,23.20
2023-03-22T05:49:38.041Z,23.10
2023-03-22T05:52:07.205Z,23.00
2023-03-22T05:54:48.869Z,23.10
2023-03-22T05:57:17.557Z,23.20
2023-03-22T05:59:46.074Z,23.30
2023-03-22T06:02:22.054Z,23.40
2023-03-22T06:04:52.090Z,23.50
2023-03-22T06:07:20.355Z,23.60
2023-03-22T06:09:57.360Z,23.60
2023-03-22T06:12:30.177Z,23.70
2023-03-22T06:15:09.618Z,23.50
2023-03-22T06:17:39.230Z,23.50
2023-03-22T06:20:15.768Z,23.20
2023-03-22T06:22:52.270Z,23.60
2023-03-22T06:25:20.549Z,23.80
2023-03-22T06:27:49.906Z,23.80
2023-03-22T06:30:19.121Z,23.90
2023-03-22T06:33:14.928Z,23.80
2023-03-22T06:35:46.883Z,23.70
2023-03-22T06:38:21.634Z,23.70
2023-03-22T06:40:49.831Z,23.60
2023-03-22T06:43:18.187Z,23.70
2023-03-22T06:45:49.992Z,23.60
2023-03-22T06:48:25.248Z,23.60
2023-03-22T06:51:15.438Z,23.60
2023-03-22T06:53:45.349Z,23.60
2023-03-22T06:56:13.875Z,23.70
2023-03-22T06:58:54.662Z,23.70
2023-03-22T07:01:23.152Z,23.60
2023-03-22T07:03:53.106Z,23.60
2023-03-22T07:06:23.913Z,23.60
2023-03-22T07:08:52.853Z,23.80
2023-03-22T07:11:27.011Z,23.60
2023-03-22T07:14:00.424Z,23.50
2023-03-22T07:16:40.525Z,23.70
2023-03-22T07:19:10.526Z,23.80
2023-03-22T07:21:39.075Z,24.00
2023-03-22T07:24:12.258Z,23.90
2023-03-22T07:26:40.805Z,24.20
2023-03-22T07:29:10.616Z,24.10
2023-03-22T07:31:40.010Z,24.30
2023-03-22T07:34:13.562Z,24.30
2023-03-22T07:36:51.451Z,24.30
2023-03-22T07:39:19.688Z,24.40
2023-03-22T07:41:49.980Z,24.70
2023-03-22T07:44:27.444Z,24.80
2023-03-22T07:47:30.517Z,25.00
2023-03-22T07:50:21.989Z,25.00
2023-03-22T07:52:55.372Z,25.10
2023-03-22T07:55:27.075Z,25.00
2023-03-22T07:57:56.388Z,25.00
2023-03-22T08:00:24.992Z,25.00
2023-03-22T08:03:16.188Z,25.00
2023-03-22T08:06:06.487Z,25.10
2023-03-22T08:08:36.849Z,24.90
2023-03-22T08:11:05.601Z,25.10
2023-03-22T08:13:34.720Z,25.10
2023-03-22T08:16:03.558Z,25.20
2023-03-22T08:18:33.414Z,25.20
2023-03-22T08:21:03.512Z,25.10
2023-03-22T08:23:41.783Z,25.20
2023-03-22T08:26:11.033Z,25.40
2023-03-22T08:28:39.305Z,25.50
2023-03-22T08:31:13.993Z,25.70
2023-03-22T08:33:45.642Z,25.80
2023-03-22T08:36:18.535Z,25.80
2023-03-22T08:38:53.036Z,25.90
2023-03-22T08:41:27.138Z,26.00
2023-03-22T08:43:55.442Z,26.00
2023-03-22T08:46:23.763Z,26.00
2023-03-22T08:48:53.149Z,25.90
2023-03-22T08:51:30.742Z,25.90
2023-03-22T08:54:33.667Z,25.80
2023-03-22T08:57:08.236Z,25.80
2023-03-22T08:59:56.674Z,25.90
2023-03-22T09:02:36.558Z,25.90
2023-03-22T09:05:05.308Z,25.90
2023-03-22T09:07:35.722Z,26.00
2023-03-22T09:10:10.456Z,26.00
2023-03-22T09:12:42.315Z,26.00
2023-03-22T09:15:11.518Z,26.10
2023-03-22T09:17:42.723Z,26.10
2023-03-22T09:20:13.138Z,26.00
2023-03-22T09:22:45.708Z,26.00
2023-03-22T09:25:16.931Z,26.20
2023-03-22T09:27:48.523Z,26.20
2023-03-22T09:30:20.169Z,26.30
2023-03-22T09:32:48.443Z,26.30
2023-03-22T09:35:18.246Z,26.50
2023-03-22T09:37:58.774Z,26.70
2023-03-22T09:40:30.008Z,26.60
2023-03-22T09:43:02.207Z,26.80
2023-03-22T09:45:38.522Z,26.90
2023-03-22T09:48:12.019Z,26.80
2023-03-22T09:50:46.498Z,26.40
2023-03-22T09:53:18.473Z,26.60
2023-03-22T09:55:57.076Z,27.00
2023-03-22T09:58:30.794Z,27.10
2023-03-22T10:01:01.596Z,27.20
2023-03-22T10:03:54.793Z,27.30
2023-03-22T10:06:24.968Z,27.40
2023-03-22T10:09:02.809Z,27.60
2023-03-22T10:11:40.345Z,27.60
2023-03-22T10:14:29.315Z,27.50
2023-03-22T10:16:59.870Z,27.50
2023-03-22T10:19:34.965Z,27.40
2023-03-22T10:22:04.818Z,27.40
2023-03-22T10:24:36.825Z,27.00
2023-03-22T10:27:13.574Z,26.90
2023-03-22T10:29:44.628Z,26.80
2023-03-22T10:32:17.096Z,26.90
2023-03-22T10:34:46.436Z,27.20
2023-03-22T10:37:17.736Z,27.50
2023-03-22T10:39:50.275Z,27.60
2023-03-22T10:42:22.940Z,27.90
2023-03-22T10:44:55.184Z,28.00
2023-03-22T10:47:32.221Z,27.20
2023-03-22T10:50:03.910Z,27.80
2023-03-22T10:52:43.451Z,28.00
2023-03-22T10:55:17.967Z,28.30
2023-03-22T10:57:53.639Z,28.40
2023-03-22T11:00:24.148Z,28.50
2023-03-22T11:02:54.752Z,28.90
2023-03-22T11:05:25.849Z,28.90
2023-03-22T11:08:02.578Z,28.80
2023-03-22T11:10:35.952Z,28.40
2023-03-22T11:13:18.469Z,28.20
2023-03-22T11:15:54.296Z,28.80
2023-03-22T11:18:22.788Z,28.70
2023-03-22T11:20:58.590Z,28.70
2023-03-22T11:23:28.454Z,29.10
2023-03-22T11:26:01.358Z,29.30
2023-03-22T11:28:36.367Z,28.60
2023-03-22T11:31:08.395Z,28.70
2023-03-22T11:33:37.903Z,28.50
2023-03-22T11:36:17.894Z,27.60
2023-03-22T11:38:47.377Z,27.50
2023-03-22T11:41:25.925Z,27.50
2023-03-22T11:43:57.740Z,27.70
2023-03-22T11:46:26.422Z,27.90
2023-03-22T11:49:01.121Z,28.60
2023-03-22T11:51:33.389Z,28.80
2023-03-22T11:54:11.277Z,28.50
2023-03-22T11:56:44.498Z,28.60
2023-03-22T11:59:16.849Z,28.90
2023-03-22T12:01:51.297Z,28.30
2023-03-22T12:04:24.495Z,29.10
2023-03-22T12:06:56.494Z,28.80
2023-03-22T12:09:32.278Z,28.70
2023-03-22T12:12:04.900Z,28.50
2023-03-22T12:14:41.576Z,28.90
2023-03-22T12:17:16.871Z,28.80
2023-03-22T12:19:52.648Z,28.80
2023-03-22T12:22:23.818Z,28.60
2023-03-22T12:24:52.018Z,28.00
2023-03-22T12:27:24.252Z,27.40
2023-03-22T12:29:57.740Z,27.70
2023-03-22T12:32:29.572Z,28.00
2023-03-22T12:35:14.099Z,28.00
2023-03-22T12:37:49.377Z,28.30
2023-03-22T12:40:23.890Z,28.10
2023-03-22T12:43:01.978Z,28.10
2023-03-22T12:45:37.369Z,28.40
2023-03-22T12:48:13.072Z,28.40
2023-03-22T12:50:45.909Z,28.20
2023-03-22T12:53:17.220Z,28.30
2023-03-22T12:55:47.622Z,28.30
2023-03-22T12:58:22.195Z,28.10
2023-03-22T13:00:54.669Z,28.00
2023-03-22T13:03:28.773Z,28.10
2023-03-22T13:06:04.509Z,27.90
2023-03-22T13:09:21.290Z,28.30
2023-03-22T13:12:10.029Z,27.90
2023-03-22T13:15:00.532Z,27.90
2023-03-22T13:17:50.376Z,28.30
2023-03-22T13:20:27.030Z,28.20
2023-03-22T13:23:28.563Z,27.90
2023-03-22T13:26:05.873Z,27.40
2023-03-22T13:28:38.064Z,27.10
2023-03-22T13:31:08.048Z,27.10
2023-03-22T13:33:40.540Z,27.10
2023-03-22T13:36:25.423Z,26.80
2023-03-22T13:38:58.362Z,26.20
2023-03-22T13:41:30.480Z,26.10
2023-03-22T13:44:00.310Z,25.60
2023-03-22T13:46:52.252Z,25.40
2023-03-22T13:49:53.191Z,25.30
2023-03-22T13:52:28.922Z,25.10
2023-03-22T13:54:59.367Z,25.20
2023-03-22T13:58:00.406Z,25.20
2023-03-22T14:00:41.401Z,25.40
2023-03-22T14:03:18.398Z,25.60
2023-03-22T14:05:49.110Z,25.70
2023-03-22T14:08:22.692Z,25.80
2023-03-22T14:10:56.424Z,25.60
2023-03-22T14:13:32.741Z,25.30
2023-03-22T14:16:09.631Z,25.30
2023-03-22T14:18:44.316Z,25.50
2023-03-22T14:21:19.826Z,25.20
